Time;durP1;ratioP1;P1;durP2;ratioP2;P2;SDS_P1;SDS_P2;PMS_P1;PMS_P2;Temp;Humidity;BMP_temperature;BMP_pressure;BME280_temperature;BME280_humidity;BME280_pressure;Samples;Min_cycle;Max_cycle;Signal;HPM_P1;HPM_P2
2021/10/15 00:02:23;;;;;;;9.83;6.97;;;;;;;0.35;97.60;93717.59;1861642;75;21085;-87
2021/10/15 00:04:50;;;;;;;12.23;7.85;;;;;;;0.28;97.87;93712.52;1834594;75;22468;-84
2021/10/15 00:07:16;;;;;;;13.83;9.60;;;;;;;0.28;98.30;93718.66;1794018;77;21055;-85
2021/10/15 00:09:43;;;;;;;15.30;10.45;;;;;;;0.29;98.71;93718.88;1863052;76;21084;-85
2021/10/15 00:12:13;;;;;;;16.25;10.10;;;;;;;0.32;99.03;93716.89;1823767;77;21133;-85
2021/10/15 00:14:40;;;;;;;10.98;7.85;;;;;;;0.35;99.48;93716.81;1776594;78;21116;-83
2021/10/15 00:17:07;;;;;;;14.78;9.60;;;;;;;0.37;99.52;93712.69;1819643;75;21090;-84
2021/10/15 00:19:33;;;;;;;7.33;6.12;;;;;;;0.38;99.50;93710.82;1840878;76;21044;-85
2021/10/15 00:22:00;;;;;;;9.10;6.22;;;;;;;0.39;99.56;93711.82;1805392;77;21162;-85
2021/10/15 00:24:27;;;;;;;9.63;7.12;;;;;;;0.36;98.27;93710.34;1815874;77;21466;-84
2021/10/15 00:26:53;;;;;;;7.53;5.60;;;;;;;0.25;97.88;93701.91;1772029;77;21074;-84
2021/10/15 00:29:20;;;;;;;8.28;6.20;;;;;;;0.20;97.24;93696.75;1807961;77;21823;-84
2021/10/15 00:31:47;;;;;;;6.12;5.20;;;;;;;0.11;96.66;93699.45;1841888;74;21025;-83
2021/10/15 00:34:13;;;;;;;6.05;5.45;;;;;;;0.08;96.35;93698.00;1867659;74;21011;-84
2021/10/15 00:36:39;;;;;;;14.65;8.78;;;;;;;0.01;95.67;93705.73;1814137;76;21677;-84
2021/10/15 00:39:06;;;;;;;11.20;8.63;;;;;;;-0.07;97.45;93696.64;1856673;76;21014;-83
2021/10/15 00:41:32;;;;;;;13.43;8.70;;;;;;;-0.05;98.39;93705.11;1827443;76;21152;-85
2021/10/15 00:44:04;;;;;;;9.33;6.65;;;;;;;-0.03;99.04;93700.24;1815088;76;21055;-85
2021/10/15 00:46:32;;;;;;;11.85;8.33;;;;;;;-0.03;98.54;93703.70;1869750;75;21716;-84
2021/10/15 00:49:00;;;;;;;13.43;9.13;;;;;;;-0.03;98.74;93697.57;1843609;77;21575;-83
2021/10/15 00:51:26;;;;;;;16.07;7.83;;;;;;;0.03;99.21;93703.51;1836119;75;21062;-84
2021/10/15 00:53:53;;;;;;;16.05;9.93;;;;;;;0.11;99.56;93708.80;1808583;76;21729;-84
2021/10/15 00:56:20;;;;;;;9.88;7.50;;;;;;;0.13;99.28;93703.16;1792350;78;21085;-86
2021/10/15 00:58:46;;;;;;;12.80;7.12;;;;;;;0.13;99.42;93707.94;1785196;78;21034;-83
2021/10/15 01:01:12;;;;;;;11.45;7.95;;;;;;;0.13;98.62;93706.61;1818772;77;21026;-84
2021/10/15 01:03:39;;;;;;;7.85;5.70;;;;;;;0.13;98.67;93710.63;1791848;78;21084;-86
2021/10/15 01:06:06;;;;;;;9.93;7.15;;;;;;;0.10;98.00;93711.26;1804560;77;21126;-85
2021/10/15 01:08:40;;;;;;;13.15;8.73;;;;;;;0.06;97.49;93707.66;1790250;78;21097;-84
2021/10/15 01:11:08;;;;;;;7.97;6.58;;;;;;;0.04;98.24;93703.73;1775835;78;21084;-85
2021/10/15 01:13:35;;;;;;;6.87;5.70;;;;;;;0.04;98.73;93706.41;1816075;77;21144;-83
2021/10/15 01:16:10;;;;;;;7.17;5.67;;;;;;;-0.01;97.80;93702.80;1743619;79;21602;-84
2021/10/15 01:18:37;;;;;;;10.40;7.03;;;;;;;-0.11;96.47;93705.86;1804137;78;21029;-84
2021/10/15 01:21:05;;;;;;;13.70;8.90;;;;;;;-0.26;97.23;93701.83;1770585;78;21092;-84
2021/10/15 01:23:32;;;;;;;12.98;9.33;;;;;;;-0.30;98.07;93702.76;1795442;78;21936;-85
2021/10/15 01:25:59;;;;;;;10.63;6.90;;;;;;;-0.26;98.90;93697.03;1781553;77;21042;-84
2021/10/15 01:28:26;;;;;;;14.43;7.53;;;;;;;-0.20;99.05;93686.94;1809237;76;21025;-85
2021/10/15 01:30:56;;;;;;;8.40;6.67;;;;;;;-0.19;98.80;93685.83;1857465;75;21138;-85
2021/10/15 01:33:23;;;;;;;10.50;6.60;;;;;;;-0.22;98.81;93689.94;1809718;76;21096;-84
2021/10/15 01:35:49;;;;;;;8.15;6.72;;;;;;;-0.27;99.02;93694.11;1790831;76;21046;-84
2021/10/15 01:38:16;;;;;;;8.00;6.22;;;;;;;-0.29;98.50;93690.43;1748920;80;21075;-84
2021/10/15 01:40:42;;;;;;;7.70;6.40;;;;;;;-0.35;97.10;93681.01;1755886;78;21199;-85
2021/10/15 01:43:11;;;;;;;7.72;6.33;;;;;;;-0.44;97.21;93684.27;1830088;75;21654;-84
2021/10/15 01:45:38;;;;;;;5.87;5.30;;;;;;;-0.46;96.97;93690.47;1788700;75;21061;-84
2021/10/15 01:48:05;;;;;;;7.05;5.92;;;;;;;-0.50;96.45;93680.20;1809572;77;22086;-84
2021/10/15 01:50:31;;;;;;;5.85;5.25;;;;;;;-0.64;96.35;93692.42;1839575;77;21085;-85
2021/10/15 01:52:58;;;;;;;7.37;6.30;;;;;;;-0.74;96.51;93680.73;1822453;77;21074;-85
2021/10/15 01:55:24;;;;;;;10.08;6.05;;;;;;;-0.84;96.52;93690.41;1781605;78;21120;-85
2021/10/15 01:57:51;;;;;;;9.75;7.28;;;;;;;-0.94;97.17;93688.86;1835180;76;21026;-84
2021/10/15 02:00:18;;;;;;;8.58;6.45;;;;;;;-0.93;97.73;93678.97;1807517;76;21065;-84
2021/10/15 02:02:44;;;;;;;6.90;5.85;;;;;;;-0.88;98.10;93675.56;1814164;76;21485;-84
2021/10/15 02:05:15;;;;;;;7.60;5.85;;;;;;;-0.79;98.01;93675.55;1840128;75;21625;-84
2021/10/15 02:07:42;;;;;;;8.88;6.17;;;;;;;-0.75;97.69;93667.16;1808039;77;21204;-84
2021/10/15 02:10:09;;;;;;;7.03;6.00;;;;;;;-0.72;97.43;93663.05;1831518;77;21049;-85
2021/10/15 02:12:36;;;;;;;10.70;6.72;;;;;;;-0.75;97.16;93660.48;1767187;78;21073;-84
2021/10/15 02:15:04;;;;;;;9.25;6.35;;;;;;;-0.80;97.72;93666.75;1777885;79;21071;-85
2021/10/15 02:17:31;;;;;;;9.20;6.65;;;;;;;-0.78;97.85;93669.13;1811592;76;21555;-84
2021/10/15 02:19:58;;;;;;;8.10;6.50;;;;;;;-0.79;97.69;93669.67;1830164;75;22407;-84
2021/10/15 02:22:25;;;;;;;8.68;5.95;;;;;;;-0.81;97.88;93672.42;1824129;77;21268;-84
2021/10/15 02:24:51;;;;;;;8.75;5.87;;;;;;;-0.83;98.25;93669.27;1837705;76;21082;-85
2021/10/15 02:27:18;;;;;;;8.95;6.28;;;;;;;-0.81;98.95;93675.87;1824611;76;21145;-83
2021/10/15 02:29:45;;;;;;;13.08;8.48;;;;;;;-0.77;99.93;93676.02;1834388;75;21059;-85
2021/10/15 02:32:12;;;;;;;13.08;8.70;;;;;;;-0.68;100.00;93678.67;1835307;76;21160;-84
2021/10/15 02:34:38;;;;;;;10.65;8.30;;;;;;;-0.57;100.00;93675.89;1799448;77;21635;-87
2021/10/15 02:37:06;;;;;;;10.35;7.47;;;;;;;-0.47;100.00;93680.90;1840838;75;20990;-82
2021/10/15 02:39:32;;;;;;;8.70;6.50;;;;;;;-0.42;100.00;93676.70;1806139;76;21073;-85
2021/10/15 02:41:58;;;;;;;8.50;6.45;;;;;;;-0.38;100.00;93672.84;1775679;78;21019;-85
2021/10/15 02:44:25;;;;;;;9.23;7.08;;;;;;;-0.38;100.00;93678.19;1781565;78;21115;-84
2021/10/15 02:46:53;;;;;;;9.65;7.05;;;;;;;-0.39;100.00;93677.41;1819660;77;21367;-82
2021/10/15 02:49:20;;;;;;;16.65;11.68;;;;;;;-0.34;100.00;93678.59;1817746;77;21049;-83
2021/10/15 02:51:46;;;;;;;8.38;6.90;;;;;;;-0.31;100.00;93682.48;1794106;77;21033;-83
2021/10/15 02:54:13;;;;;;;8.70;7.12;;;;;;;-0.31;99.96;93687.84;1797188;78;21061;-83
2021/10/15 02:56:40;;;;;;;9.13;6.87;;;;;;;-0.33;99.32;93690.84;1775939;78;21156;-83
2021/10/15 02:59:07;;;;;;;10.88;6.10;;;;;;;-0.38;98.85;93688.33;1780004;77;21069;-85
2021/10/15 03:01:34;;;;;;;9.08;7.30;;;;;;;-0.37;98.87;93685.91;1881228;74;21061;-84
2021/10/15 03:04:01;;;;;;;8.33;6.78;;;;;;;-0.37;98.92;93682.45;1812299;77;21069;-84
2021/10/15 03:06:27;;;;;;;10.90;7.67;;;;;;;-0.34;99.43;93679.92;1816262;77;21100;-82
2021/10/15 03:08:54;;;;;;;13.40;8.35;;;;;;;-0.32;99.42;93679.59;1825255;75;21769;-82
2021/10/15 03:11:20;;;;;;;9.68;6.80;;;;;;;-0.30;99.82;93683.53;1875442;74;21012;-84
2021/10/15 03:13:47;;;;;;;13.03;7.87;;;;;;;-0.28;99.98;93678.62;1829700;77;21016;-83
2021/10/15 03:16:14;;;;;;;15.65;9.45;;;;;;;-0.25;100.00;93673.98;1842864;76;21135;-84
2021/10/15 03:18:41;;;;;;;19.00;11.53;;;;;;;-0.22;99.75;93674.46;1818985;76;21084;-86
2021/10/15 03:21:16;;;;;;;16.42;10.20;;;;;;;-0.28;98.27;93678.62;1803170;77;21537;-83
2021/10/15 03:23:43;;;;;;;12.95;8.35;;;;;;;-0.46;96.71;93680.34;1837208;74;21866;-84
2021/10/15 03:26:11;;;;;;;10.30;6.95;;;;;;;-0.67;96.71;93679.70;1845979;75;21037;-84
2021/10/15 03:28:39;;;;;;;10.70;7.28;;;;;;;-0.73;98.38;93682.30;1855479;75;21516;-84
2021/10/15 03:31:06;;;;;;;10.82;7.72;;;;;;;-0.71;99.45;93681.97;1838276;75;20962;-85
2021/10/15 03:33:34;;;;;;;8.90;6.35;;;;;;;-0.68;99.90;93680.00;1850128;75;21221;-85
2021/10/15 03:36:03;;;;;;;13.35;7.83;;;;;;;-0.61;100.00;93678.97;1875232;73;21114;-84
2021/10/15 03:38:32;;;;;;;7.70;6.08;;;;;;;-0.58;100.00;93680.45;1834829;76;21053;-86
2021/10/15 03:40:59;;;;;;;8.75;7.53;;;;;;;-0.55;100.00;93675.03;1835622;77;21043;-85
2021/10/15 03:43:25;;;;;;;10.93;6.58;;;;;;;-0.54;100.00;93680.60;1758584;77;21623;-85
2021/10/15 03:45:52;;;;;;;9.90;8.18;;;;;;;-0.63;100.00;93679.30;1821238;77;21810;-85
2021/10/15 03:48:18;;;;;;;13.22;7.80;;;;;;;-0.66;100.00;93687.94;1804480;77;21303;-86
2021/10/15 03:50:45;;;;;;;8.33;6.90;;;;;;;-0.65;100.00;93686.83;1791802;78;21034;-85
2021/10/15 03:53:11;;;;;;;9.13;5.92;;;;;;;-0.60;100.00;93680.00;1817160;78;21011;-86
2021/10/15 03:55:40;;;;;;;10.72;8.00;;;;;;;-0.57;100.00;93681.23;1814687;78;21018;-86
2021/10/15 03:58:06;;;;;;;10.55;7.75;;;;;;;-0.59;100.00;93675.44;1813494;78;21605;-84
2021/10/15 04:00:34;;;;;;;8.70;7.22;;;;;;;-0.59;100.00;93678.89;1816914;77;21595;-86
2021/10/15 04:03:01;;;;;;;7.28;6.30;;;;;;;-0.53;100.00;93684.83;1810986;77;21060;-85
2021/10/15 04:05:28;;;;;;;10.32;7.33;;;;;;;-0.53;100.00;93682.97;1813743;77;21037;-85
2021/10/15 04:07:54;;;;;;;8.53;5.90;;;;;;;-0.54;100.00;93676.59;1802146;77;21041;-85
2021/10/15 04:10:21;;;;;;;10.35;7.10;;;;;;;-0.56;100.00;93683.60;1804708;77;21152;-86
2021/10/15 04:12:47;;;;;;;7.67;6.17;;;;;;;-0.63;100.00;93680.63;1813269;77;21027;-85
2021/10/15 04:15:14;;;;;;;11.35;7.22;;;;;;;-0.62;100.00;93684.08;1814147;77;21085;-84
2021/10/15 04:17:40;;;;;;;10.38;8.03;;;;;;;-0.62;100.00;93679.52;1815598;77;21057;-85
2021/10/15 04:20:08;;;;;;;9.98;7.12;;;;;;;-0.60;100.00;93680.00;1813417;77;21061;-86
2021/10/15 04:22:34;;;;;;;9.35;6.33;;;;;;;-0.61;100.00;93674.41;1892011;74;21665;-85
2021/10/15 04:25:01;;;;;;;8.28;7.05;;;;;;;-0.61;100.00;93671.73;1844592;74;21063;-84
2021/10/15 04:27:28;;;;;;;7.15;6.28;;;;;;;-0.67;99.60;93669.02;1856270;74;21658;-84
2021/10/15 04:29:55;;;;;;;10.08;7.05;;;;;;;-0.71;99.87;93673.43;1876910;74;21142;-86
2021/10/15 04:32:23;;;;;;;7.95;6.53;;;;;;;-0.75;99.89;93678.62;1816836;74;20970;-86
2021/10/15 04:34:49;;;;;;;6.58;5.87;;;;;;;-0.76;100.00;93671.69;1898080;74;21041;-86
2021/10/15 04:37:16;;;;;;;9.05;6.00;;;;;;;-0.79;100.00;93667.01;1827261;74;21115;-88
2021/10/15 04:39:43;;;;;;;6.10;5.47;;;;;;;-0.85;99.29;93676.27;1822668;77;21646;-85
2021/10/15 04:42:09;;;;;;;6.17;5.35;;;;;;;-0.95;98.83;93667.25;1816435;77;21046;-85
2021/10/15 04:44:39;;;;;;;9.30;6.55;;;;;;;-0.99;99.20;93663.65;1818676;74;21036;-85
2021/10/15 04:47:06;;;;;;;8.15;6.70;;;;;;;-1.02;99.79;93668.28;1886397;74;21235;-85
2021/10/15 04:49:32;;;;;;;10.25;6.97;;;;;;;-1.01;100.00;93660.52;1841455;74;21068;-85
2021/10/15 04:51:59;;;;;;;8.05;5.53;;;;;;;-0.96;100.00;93668.36;1831505;76;21100;-85
2021/10/15 04:54:25;;;;;;;6.97;5.60;;;;;;;-0.93;100.00;93673.07;1816643;77;21174;-85
2021/10/15 04:56:52;;;;;;;9.95;6.78;;;;;;;-0.94;99.33;93672.03;1819107;77;21140;-86
2021/10/15 04:59:18;;;;;;;9.65;7.42;;;;;;;-0.93;99.58;93676.30;1840255;77;21775;-85
2021/10/15 05:01:46;;;;;;;10.65;7.60;;;;;;;-0.87;100.00;93663.00;1817757;77;21073;-86
2021/10/15 05:04:14;;;;;;;11.38;8.00;;;;;;;-0.85;100.00;93670.94;1787742;77;21022;-85
2021/10/15 05:06:42;;;;;;;9.38;6.92;;;;;;;-0.80;100.00;93668.09;1833188;75;21615;-85
2021/10/15 05:11:42;;;;;;;9.88;7.67;;;;;;;-0.76;100.00;93666.91;1853809;75;21094;-87
2021/10/15 05:14:09;;;;;;;9.90;6.78;;;;;;;-0.72;100.00;93672.39;1884769;74;21056;-85
2021/10/15 05:16:36;;;;;;;12.13;8.25;;;;;;;-0.69;100.00;93672.55;1854212;74;21115;-86
2021/10/15 05:19:03;;;;;;;12.40;9.10;;;;;;;-0.67;100.00;93678.37;1788852;77;21081;-87
2021/10/15 05:21:31;;;;;;;10.80;8.70;;;;;;;-0.64;100.00;93667.05;1786720;75;21068;-84
2021/10/15 05:23:57;;;;;;;14.05;10.00;;;;;;;-0.54;100.00;93673.37;1875751;74;21616;-85
2021/10/15 05:26:24;;;;;;;14.55;9.50;;;;;;;-0.39;100.00;93668.61;1805905;77;21081;-85
2021/10/15 05:28:50;;;;;;;12.05;9.35;;;;;;;-0.17;100.00;93667.03;1792498;77;21104;-85
2021/10/15 05:31:17;;;;;;;13.32;9.45;;;;;;;0.24;100.00;93664.23;1800641;77;21045;-84
2021/10/15 05:33:44;;;;;;;13.25;9.18;;;;;;;0.72;100.00;93658.96;1807702;77;21076;-85
2021/10/15 05:36:11;;;;;;;11.30;8.15;;;;;;;1.10;100.00;93658.79;1784516;75;21119;-87
2021/10/15 05:41:08;;;;;;;16.27;10.10;;;;;;;1.43;98.57;93658.78;1807654;77;21073;-84
2021/10/15 05:43:34;;;;;;;10.98;7.97;;;;;;;1.45;97.43;93662.46;1795653;77;21120;-87
2021/10/15 05:46:02;;;;;;;13.65;8.28;;;;;;;1.45;96.79;93665.92;1804685;77;21048;-85
2021/10/15 05:48:31;;;;;;;11.93;8.05;;;;;;;1.46;96.20;93670.72;1821308;77;21140;-87
2021/10/15 05:50:58;;;;;;;9.83;7.97;;;;;;;1.44;95.39;93672.97;1791081;78;21133;-88
2021/10/15 05:53:27;;;;;;;11.00;7.37;;;;;;;1.35;94.77;93669.01;1775705;78;21104;-88
2021/10/15 06:01:22;;;;;;;10.70;8.60;;;;;;;0.98;94.62;93673.48;1854512;74;21061;-86
2021/10/15 06:04:08;;;;;;;11.60;8.68;;;;;;;0.93;94.62;93671.76;1870628;73;21089;-88
2021/10/15 06:14:20;;;;;;;12.98;9.05;;;;;;;0.72;95.68;93665.09;1890009;74;21166;-87
2021/10/15 06:16:51;;;;;;;9.98;7.67;;;;;;;0.80;96.19;93668.81;1859464;75;21029;-86
2021/10/15 06:19:19;;;;;;;15.20;8.68;;;;;;;0.87;96.22;93666.39;1835650;75;21017;-85
2021/10/15 06:21:45;;;;;;;12.03;8.53;;;;;;;0.93;96.01;93657.03;1828838;75;21097;-87
2021/10/15 06:24:12;;;;;;;13.20;10.00;;;;;;;0.97;95.69;93659.84;1852744;75;21071;-84
2021/10/15 06:26:40;;;;;;;10.25;7.75;;;;;;;0.98;95.42;93661.42;1785027;77;39135;-86
2021/10/15 06:29:06;;;;;;;12.65;8.10;;;;;;;1.00;95.80;93663.20;1821140;75;21386;-87
2021/10/15 06:31:33;;;;;;;12.68;8.88;;;;;;;1.03;95.16;93652.40;1832602;74;21087;-86
2021/10/15 06:34:01;;;;;;;11.88;8.55;;;;;;;1.05;95.43;93649.59;1839020;74;21488;-89
2021/10/15 06:36:27;;;;;;;15.63;10.48;;;;;;;1.09;95.14;93641.69;1869593;74;21569;-87
2021/10/15 06:38:54;;;;;;;13.13;9.50;;;;;;;1.11;94.65;93646.17;1751083;79;21295;-87
2021/10/15 06:41:20;;;;;;;12.65;8.73;;;;;;;1.14;94.97;93636.92;1794280;77;21150;-85
2021/10/15 06:43:47;;;;;;;14.75;9.63;;;;;;;1.21;94.61;93637.17;1838111;75;21278;-86
2021/10/15 06:46:13;;;;;;;13.60;9.30;;;;;;;1.28;94.53;93642.00;1821315;76;21035;-88
2021/10/15 06:48:42;;;;;;;14.87;9.93;;;;;;;1.35;94.23;93630.16;1803873;77;21098;-85
2021/10/15 06:51:12;;;;;;;10.63;8.13;;;;;;;1.44;94.22;93626.84;1785492;77;21143;-88
2021/10/15 06:53:43;;;;;;;17.90;10.45;;;;;;;1.54;93.59;93627.52;1763058;77;21165;-87
2021/10/15 06:56:12;;;;;;;14.70;8.95;;;;;;;1.65;93.39;93630.77;1839421;75;21054;-87
2021/10/15 06:58:39;;;;;;;12.07;8.38;;;;;;;1.81;92.56;93625.56;1826340;75;21091;-86
2021/10/15 07:01:06;;;;;;;12.30;8.83;;;;;;;2.04;92.41;93626.45;1817958;77;21053;-87
2021/10/15 07:03:32;;;;;;;15.13;8.88;;;;;;;2.31;91.30;93627.09;1816597;77;21102;-85
2021/10/15 07:06:03;;;;;;;12.10;9.38;;;;;;;2.51;90.24;93622.69;1812637;77;21122;-88
2021/10/15 07:08:44;;;;;;;15.98;9.93;;;;;;;2.60;88.91;93618.55;1816544;77;21733;-86
2021/10/15 07:11:14;;;;;;;12.55;8.93;;;;;;;2.64;88.68;93613.50;1783731;77;21073;-87
2021/10/15 07:13:41;;;;;;;17.50;10.05;;;;;;;2.72;88.92;93618.52;1799735;76;21116;-86
2021/10/15 07:16:08;;;;;;;17.12;10.13;;;;;;;2.85;88.68;93615.99;1832786;76;21093;-88
2021/10/15 07:18:35;;;;;;;12.30;9.45;;;;;;;3.15;88.41;93600.31;1809763;78;21037;-87
2021/10/15 07:21:01;;;;;;;11.48;8.33;;;;;;;3.15;88.41;93600.31;1807507;77;21026;-86
2021/10/15 07:23:28;;;;;;;12.50;9.60;;;;;;;3.36;87.60;93610.07;1812634;77;21108;-86
2021/10/15 07:25:54;;;;;;;14.98;10.32;;;;;;;3.51;86.53;93607.19;1860485;74;21030;-86
2021/10/15 07:28:22;;;;;;;15.83;9.20;;;;;;;3.64;85.32;93600.59;1871560;74;21119;-86
2021/10/15 07:30:49;;;;;;;11.85;8.88;;;;;;;3.66;84.47;93598.35;1842934;75;21813;-86
2021/10/15 07:33:16;;;;;;;13.45;9.45;;;;;;;3.62;83.86;93596.14;1811865;77;21641;-86
2021/10/15 07:35:43;;;;;;;10.32;7.80;;;;;;;3.62;83.86;93596.14;1786105;77;21211;-87
2021/10/15 07:38:10;;;;;;;13.00;9.18;;;;;;;3.55;83.23;93590.58;1810611;77;21049;-87
2021/10/15 07:40:37;;;;;;;14.30;10.53;;;;;;;3.44;82.98;93594.34;1788543;77;22717;-87
2021/10/15 07:43:06;;;;;;;12.80;10.10;;;;;;;3.30;83.63;93585.34;1808710;77;21050;-86
2021/10/15 07:45:32;;;;;;;14.20;9.88;;;;;;;3.32;83.82;93578.30;1817935;75;21071;-88
2021/10/15 07:47:59;;;;;;;14.93;9.23;;;;;;;3.31;84.42;93586.11;1884496;74;21021;-87
2021/10/15 07:50:26;;;;;;;14.63;10.53;;;;;;;3.29;84.41;93582.44;1843326;75;21395;-87
2021/10/15 07:52:54;;;;;;;11.88;9.60;;;;;;;3.29;84.41;93582.44;1831104;76;21614;-87
2021/10/15 07:55:21;;;;;;;13.28;8.70;;;;;;;3.29;84.46;93581.66;1808007;76;21096;-89
2021/10/15 07:57:49;;;;;;;10.68;8.13;;;;;;;3.23;84.51;93577.09;1820344;77;21066;-90
2021/10/15 08:00:18;;;;;;;13.03;8.88;;;;;;;3.22;84.98;93574.76;1765341;78;21108;-89
2021/10/15 08:02:45;;;;;;;11.63;8.85;;;;;;;3.24;85.48;93571.17;1803123;77;21077;-87
2021/10/15 08:05:13;;;;;;;10.48;8.23;;;;;;;3.29;85.19;93574.38;1840046;75;21636;-86
2021/10/15 08:07:42;;;;;;;10.38;8.05;;;;;;;3.39;85.80;93567.72;1822581;75;21127;-89
2021/10/15 08:10:10;;;;;;;9.70;7.97;;;;;;;3.39;85.80;93567.72;1834397;74;21079;-86
2021/10/15 08:12:39;;;;;;;10.10;7.67;;;;;;;3.55;85.18;93561.78;1866510;74;21040;-87
2021/10/15 08:15:08;;;;;;;10.48;8.58;;;;;;;3.67;84.01;93573.02;1811377;77;21162;-85
2021/10/15 08:17:37;;;;;;;9.78;7.20;;;;;;;3.68;83.96;93559.77;1802512;77;21085;-85
2021/10/15 08:20:06;;;;;;;9.40;6.85;;;;;;;3.72;83.91;93569.27;1809390;77;22166;-86
2021/10/15 08:22:33;;;;;;;8.35;6.65;;;;;;;3.75;84.07;93560.52;1782408;77;21034;-87
2021/10/15 08:24:59;;;;;;;11.70;7.70;;;;;;;3.79;83.13;93560.03;1801261;77;21103;-88
2021/10/15 08:27:27;;;;;;;8.35;6.78;;;;;;;3.79;83.70;93558.12;1802203;78;21173;-86
2021/10/15 08:30:05;;;;;;;9.73;6.58;;;;;;;3.88;83.37;93559.30;1772934;79;21111;-87
2021/10/15 08:32:32;;;;;;;11.28;6.85;;;;;;;4.05;82.88;93558.13;1790802;78;21022;-86
2021/10/15 08:35:00;;;;;;;7.67;6.30;;;;;;;4.05;82.88;93558.13;1796899;78;21564;-85
2021/10/15 08:37:28;;;;;;;7.67;6.37;;;;;;;4.16;81.58;93549.73;1803882;77;21074;-89
2021/10/15 08:39:57;;;;;;;9.83;7.30;;;;;;;4.31;81.28;93549.48;1799257;78;21561;-87
2021/10/15 08:42:24;;;;;;;9.65;7.03;;;;;;;4.48;81.42;93549.09;1808427;77;21128;-87
2021/10/15 08:44:51;;;;;;;9.58;6.53;;;;;;;4.69;80.35;93547.95;1812819;77;21145;-86
2021/10/15 08:47:18;;;;;;;10.05;6.90;;;;;;;4.85;78.77;93546.77;1766777;78;21047;-86
2021/10/15 08:49:45;;;;;;;10.72;7.72;;;;;;;5.02;78.46;93546.88;1813256;77;21069;-86
2021/10/15 08:52:12;;;;;;;10.93;8.45;;;;;;;5.20;76.59;93547.22;1814845;75;21068;-86
2021/10/15 08:54:43;;;;;;;10.00;7.72;;;;;;;5.36;76.07;93551.16;1870666;74;21044;-86
2021/10/15 08:57:08;;;;;;;9.83;7.08;;;;;;;5.55;75.52;93546.27;1781460;78;23215;-88
2021/10/15 09:02:18;;;;;;;11.33;8.15;;;;;;;5.95;74.87;93540.41;1801126;77;21093;-85
2021/10/15 09:04:49;;;;;;;15.00;8.40;;;;;;;6.12;74.80;93543.15;1835863;75;21253;-86
2021/10/15 09:07:19;;;;;;;9.93;7.72;;;;;;;6.29;74.49;93543.22;1854306;74;21808;-85
2021/10/15 09:10:08;;;;;;;10.50;8.28;;;;;;;6.47;74.20;93540.19;1834006;75;21061;-87
2021/10/15 09:12:46;;;;;;;10.38;8.63;;;;;;;6.66;73.53;93534.45;1807701;77;21018;-85
2021/10/15 09:15:16;;;;;;;11.50;8.18;;;;;;;6.81;72.71;93529.42;1816179;74;21171;-86
2021/10/15 09:17:50;;;;;;;11.78;8.93;;;;;;;6.95;72.52;93526.86;1854986;74;21128;-86
2021/10/15 09:20:35;;;;;;;12.73;8.23;;;;;;;7.09;71.75;93514.66;1808615;74;22056;-86
2021/10/15 09:23:01;;;;;;;10.25;7.80;;;;;;;7.21;71.74;93509.75;1795693;77;21005;-87
2021/10/15 09:25:33;;;;;;;8.45;6.85;;;;;;;7.37;70.40;93511.45;1817074;77;21018;-85
2021/10/15 09:28:00;;;;;;;9.75;6.72;;;;;;;7.47;68.89;93514.26;1824871;75;21103;-85
2021/10/15 09:30:32;;;;;;;10.70;9.05;;;;;;;7.57;67.12;93507.40;1828498;75;21434;-88
2021/10/15 09:33:02;;;;;;;10.35;7.20;;;;;;;7.67;67.52;93497.80;1820873;76;21828;-85
2021/10/15 09:35:32;;;;;;;10.00;7.00;;;;;;;7.78;66.81;93500.02;1828207;76;21042;-84
2021/10/15 09:38:07;;;;;;;11.22;7.12;;;;;;;7.87;66.04;93501.84;1793978;77;21070;-86
2021/10/15 09:40:45;;;;;;;9.08;7.00;;;;;;;7.95;66.13;93504.80;1818491;77;21821;-86
2021/10/15 09:43:13;;;;;;;7.45;6.47;;;;;;;8.06;65.26;93499.46;1841415;75;21046;-85
2021/10/15 09:45:43;;;;;;;12.47;7.08;;;;;;;8.11;62.62;93494.27;1861615;74;21194;-84
2021/10/15 09:48:36;;;;;;;8.70;6.55;;;;;;;8.13;62.77;93490.03;1890549;74;21045;-86
2021/10/15 09:51:07;;;;;;;9.48;6.42;;;;;;;8.21;62.65;93487.56;1843693;75;21227;-87
2021/10/15 09:53:33;;;;;;;7.60;6.28;;;;;;;8.31;61.97;93480.63;1836400;75;21092;-86
2021/10/15 09:55:59;;;;;;;9.70;7.17;;;;;;;8.41;63.06;93473.17;1771387;77;21037;-85
2021/10/15 09:58:26;;;;;;;12.80;8.78;;;;;;;8.55;63.46;93474.41;1819131;76;21028;-85
2021/10/15 10:00:54;;;;;;;9.95;7.50;;;;;;;8.68;63.57;93471.55;1797648;77;21029;-85
2021/10/15 10:03:24;;;;;;;7.12;6.30;;;;;;;8.79;62.56;93471.02;1820460;77;21105;-86
2021/10/15 10:05:52;;;;;;;8.33;6.60;;;;;;;8.85;62.42;93473.56;1821348;77;21120;-85
2021/10/15 10:08:18;;;;;;;8.35;6.45;;;;;;;8.93;61.19;93460.22;1818337;77;21033;-86
2021/10/15 10:10:45;;;;;;;7.30;6.42;;;;;;;8.99;60.71;93458.70;1817863;77;21110;-86
2021/10/15 10:13:14;;;;;;;8.63;6.80;;;;;;;9.01;60.47;93455.59;1846794;74;21100;-86
2021/10/15 10:15:42;;;;;;;8.73;5.53;;;;;;;9.05;61.40;93455.02;1881089;74;21134;-86
2021/10/15 10:20:56;;;;;;;6.22;5.08;;;;;;;9.12;59.44;93452.91;1816423;77;22409;-86
2021/10/15 10:23:29;;;;;;;5.37;4.55;;;;;;;9.14;58.00;93443.23;1793800;77;21089;-86
2021/10/15 10:26:01;;;;;;;4.97;4.08;;;;;;;9.21;57.72;93437.83;1811032;77;21413;-86
2021/10/15 10:28:27;;;;;;;4.45;3.58;;;;;;;9.30;57.30;93428.53;1824798;76;21083;-87
2021/10/15 10:30:57;;;;;;;4.50;3.25;;;;;;;9.38;55.50;93435.50;1814074;77;21067;-86
2021/10/15 10:33:24;;;;;;;4.47;3.50;;;;;;;9.44;53.93;93432.02;1797972;77;21539;-84
2021/10/15 10:35:51;;;;;;;5.83;4.08;;;;;;;9.51;54.18;93423.67;1840172;75;22091;-84
2021/10/15 10:38:26;;;;;;;3.83;3.42;;;;;;;9.57;53.69;93430.28;1760075;77;21063;-86
2021/10/15 10:41:10;;;;;;;4.05;3.62;;;;;;;9.63;53.22;93424.66;1805906;76;21572;-87
2021/10/15 10:43:51;;;;;;;5.35;3.95;;;;;;;9.66;51.02;93419.79;1839501;76;21092;-87
2021/10/15 10:46:25;;;;;;;5.17;3.75;;;;;;;9.68;50.87;93414.17;1827531;76;22160;-87
2021/10/15 10:48:58;;;;;;;7.10;4.05;;;;;;;9.77;51.60;93406.98;1821027;74;21630;-85
2021/10/15 10:51:29;;;;;;;5.15;4.00;;;;;;;9.86;51.74;93403.89;1888885;74;21797;-86
2021/10/15 10:54:11;;;;;;;12.37;11.18;;;;;;;9.93;52.04;93399.22;1828099;75;21061;-87
2021/10/15 10:56:46;;;;;;;4.62;4.03;;;;;;;10.03;51.46;93394.14;1783037;77;21052;-84
2021/10/15 10:59:26;;;;;;;4.33;3.50;;;;;;;10.11;51.03;93386.16;1828666;77;21309;-86
2021/10/15 11:01:55;;;;;;;4.05;2.85;;;;;;;10.18;50.69;93388.27;1820401;76;21105;-86
2021/10/15 11:04:36;;;;;;;6.40;3.50;;;;;;;10.24;50.17;93383.22;1790909;77;21140;-86
2021/10/15 11:09:58;;;;;;;4.40;4.00;;;;;;;10.38;48.73;93383.77;1873720;75;21029;-86
2021/10/15 11:12:33;;;;;;;6.30;4.03;;;;;;;10.41;48.30;93377.55;1809119;75;21022;-86
2021/10/15 11:15:10;;;;;;;3.22;2.92;;;;;;;10.48;48.00;93382.19;1781764;79;22011;-85
2021/10/15 11:17:51;;;;;;;4.53;2.98;;;;;;;10.53;47.88;93374.97;1810425;77;21034;-86
2021/10/15 11:20:18;;;;;;;2.45;2.25;;;;;;;10.56;47.40;93366.80;1809420;77;21038;-87
2021/10/15 11:22:53;;;;;;;2.60;2.12;;;;;;;10.62;46.73;93366.59;1816899;77;21042;-86
2021/10/15 11:25:22;;;;;;;2.20;2.00;;;;;;;10.65;46.02;93363.08;1814675;77;21535;-86
2021/10/15 11:27:52;;;;;;;2.62;2.37;;;;;;;10.70;45.18;93354.50;1809827;77;21486;-85
2021/10/15 11:30:20;;;;;;;2.90;2.45;;;;;;;10.74;44.25;93353.12;1862306;74;21022;-84
2021/10/15 11:32:47;;;;;;;3.05;2.62;;;;;;;10.81;44.81;93344.92;1854576;74;20963;-85
2021/10/15 11:35:23;;;;;;;2.92;2.58;;;;;;;10.96;45.17;93343.47;1803965;77;21682;-83
2021/10/15 11:37:58;;;;;;;3.83;2.35;;;;;;;11.06;44.37;93342.64;1811997;77;21076;-84
2021/10/15 11:40:35;;;;;;;2.87;2.27;;;;;;;11.11;44.58;93340.25;1801392;77;21766;-84
2021/10/15 11:43:24;;;;;;;2.25;1.72;;;;;;;11.17;43.95;93343.34;1811249;77;21041;-85
2021/10/15 11:45:59;;;;;;;3.35;2.25;;;;;;;11.26;43.20;93331.39;1870957;74;20989;-82
2021/10/15 11:48:41;;;;;;;2.35;2.15;;;;;;;11.37;43.21;93325.86;1834329;74;21018;-86
2021/10/15 11:51:11;;;;;;;2.22;2.12;;;;;;;11.40;43.70;93339.45;1808492;77;21109;-84
2021/10/15 11:53:51;;;;;;;3.75;2.02;;;;;;;11.42;43.39;93332.23;1805692;77;21296;-85
2021/10/15 11:56:23;;;;;;;1.92;1.82;;;;;;;11.41;43.56;93330.09;1805219;77;20998;-85
2021/10/15 11:58:55;;;;;;;5.42;2.08;;;;;;;11.40;42.78;93323.11;1812985;77;21061;-85
2021/10/15 12:01:32;;;;;;;2.27;2.02;;;;;;;11.41;41.55;93312.99;1883420;75;21033;-85
2021/10/15 12:04:04;;;;;;;2.58;2.02;;;;;;;11.48;41.51;93316.25;1814799;75;21701;-86
2021/10/15 12:06:42;;;;;;;2.33;2.10;;;;;;;11.54;42.65;93320.83;1813854;77;21923;-85